Nanticoke — WDC4353 — position and weather

sailwx.info

Track history (hours):
 
Tides and Currents Weather Stations Pressure Air Temp Water Temp Dewpoint Dewpoint Depression Visibility Wind Speed Wind Dir Waves Ship Positions

Nanticoke

Owner: Vane Line Bunkering, Baltimore, MD. More information available from US FCC via Universal Licensing System and Coast Guard Vessel Documentation Center.

Last reported at 2015-Mar-06 16:33 UTC. Time now 2015-Mar-06 17:35 UTC.
Position N 40°40' W 074°00'.

Length 34 m; draft 4.7 m.

Type: Towing. MMSI: 367023480.

Date/timePositionNaut miles runAvg speedWind from/ knotsBaromVisibWave heightAir tempDewpointWater temp
2015-Mar-06 16:33N 40°40' W 074°00'0 0.0
2015-Mar-06 15:33N 40°40' W 074°00'0 0.0
2015-Mar-06 14:33N 40°40' W 074°00'0 0.0
2015-Mar-06 13:33N 40°40' W 074°00'1 1.3
2015-Mar-06 12:34N 40°41' W 074°00'0 0.1
2015-Mar-06 11:33N 40°41' W 074°00'0 0.0
2015-Mar-06 10:33N 40°41' W 074°00'0 0.0
2015-Mar-06 09:33N 40°41' W 074°00'0 0.0
2015-Mar-06 08:33N 40°41' W 074°00'0 0.0
2015-Mar-06 07:33N 40°41' W 074°00'0 0.0
2015-Mar-06 06:33N 40°41' W 074°00'0 0.0
2015-Mar-06 05:33N 40°41' W 074°00'0 0.0
2015-Mar-06 04:34N 40°41' W 074°00'0 0.0
2015-Mar-06 03:33N 40°41' W 074°00'0 0.0
2015-Mar-06 02:33N 40°41' W 074°00'2 2.4
2015-Mar-06 01:33N 40°40' W 074°02'0 0.0
2015-Mar-06 00:33N 40°40' W 074°02'0 0.0
2015-Mar-05 23:33N 40°40' W 074°02'0 0.0
2015-Mar-05 22:33N 40°40' W 074°02'0 0.0
2015-Mar-05 21:33N 40°40' W 074°02'0 0.1
2015-Mar-05 20:33N 40°40' W 074°03'0 0.0
2015-Mar-05 19:33N 40°40' W 074°03'0 0.0
2015-Mar-05 18:33N 40°40' W 074°03'0 0.0
2015-Mar-05 17:33N 40°40' W 074°03'0 0.0
2015-Mar-05 16:33N 40°40' W 074°02'0 0.1
2015-Mar-05 15:33N 40°40' W 074°03'0 0.0
2015-Mar-05 14:33N 40°40' W 074°03'0 0.1
2015-Mar-05 13:33N 40°40' W 074°02'0 0.1
2015-Mar-05 12:33N 40°40' W 074°02'0 0.0
2015-Mar-05 11:33N 40°40' W 074°02'0 0.1
2015-Mar-05 10:33N 40°40' W 074°02'0 0.1
2015-Mar-05 09:33N 40°40' W 074°03'0 0.0
2015-Mar-05 08:33N 40°40' W 074°02'0 0.1
2015-Mar-05 07:33N 40°40' W 074°03'0 0.0
2015-Mar-05 06:33N 40°40' W 074°03'0 0.0
2015-Mar-05 05:33N 40°40' W 074°03'0 0.0
2015-Mar-05 04:33N 40°40' W 074°03'0 0.1
2015-Mar-05 03:33N 40°40' W 074°02'0 0.0
2015-Mar-05 02:33N 40°40' W 074°02'0 0.0
2015-Mar-05 01:33N 40°40' W 074°02'0 0.0
2015-Mar-05 00:33N 40°40' W 074°02'0 0.0
2015-Mar-04 23:33N 40°40' W 074°02'0 0.0
2015-Mar-04 22:33N 40°40' W 074°03'0 0.1
2015-Mar-04 21:33N 40°40' W 074°02'0 0.1
2015-Mar-04 20:33N 40°40' W 074°03'0 0.0
2015-Mar-04 19:33N 40°40' W 074°03'0 0.0
2015-Mar-04 18:33N 40°40' W 074°03'0 0.0
2015-Mar-04 17:33N 40°40' W 074°03'0 0.0
2015-Mar-04 16:33N 40°40' W 074°03'0 0.1
2015-Mar-04 15:33N 40°40' W 074°02'0 0.1
2015-Mar-04 14:33N 40°40' W 074°02'0 0.0
2015-Mar-04 13:33N 40°40' W 074°02'0 0.0
2015-Mar-04 12:33N 40°40' W 074°02'0 0.0
2015-Mar-04 11:33N 40°40' W 074°02'0 0.0
2015-Mar-04 10:33N 40°40' W 074°02'0 0.0
2015-Mar-04 09:33N 40°40' W 074°02'0 0.0
2015-Mar-04 08:33N 40°40' W 074°02'0 0.1
2015-Mar-04 07:33N 40°40' W 074°03'0 0.0
2015-Mar-04 06:33N 40°40' W 074°02'0 0.0
2015-Mar-04 05:33N 40°40' W 074°03'0 0.1
2015-Mar-04 04:33N 40°40' W 074°03'3 2.7
2015-Mar-04 03:33N 40°37' W 074°03'0 0.3
2015-Mar-04 02:33N 40°37' W 074°03'0 0.0
2015-Mar-04 01:33N 40°37' W 074°03'0 0.0
2015-Mar-04 00:33N 40°37' W 074°03'0 0.0
2015-Mar-03 23:33N 40°37' W 074°03'0 0.0
2015-Mar-03 22:33N 40°37' W 074°03'0 0.0
2015-Mar-03 21:33N 40°37' W 074°03'0 0.1
2015-Mar-03 20:33N 40°37' W 074°03'2 1.9
2015-Mar-03 19:33N 40°36' W 074°01'0 0.1
2015-Mar-03 18:33N 40°36' W 074°01'0 0.1
2015-Mar-03 17:33N 40°36' W 074°01'0 0.0
2015-Mar-03 16:33N 40°36' W 074°01'0 0.0
2015-Mar-03 15:33N 40°36' W 074°01'0 0.0
2015-Mar-03 14:33N 40°36' W 074°01'0 0.0
2015-Mar-03 13:33N 40°36' W 074°01'0 0.0
2015-Mar-03 12:33N 40°36' W 074°01'0 0.0
2015-Mar-03 11:33N 40°36' W 074°01'0 0.0
2015-Mar-03 10:33N 40°36' W 074°01'0 0.1
2015-Mar-03 09:33N 40°36' W 074°01'0 0.1
2015-Mar-03 08:33N 40°36' W 074°01'0 0.1
2015-Mar-03 07:33N 40°36' W 074°01'0 0.0
2015-Mar-03 06:33N 40°36' W 074°01'0 0.0
2015-Mar-03 05:33N 40°36' W 074°01'0 0.0
2015-Mar-03 04:33N 40°36' W 074°01'0 0.0
2015-Mar-03 03:33N 40°36' W 074°01'0 0.0
2015-Mar-03 02:33N 40°36' W 074°01'0 0.0
2015-Mar-03 01:33N 40°36' W 074°01'0 0.0
2015-Mar-03 00:33N 40°36' W 074°01'0 0.0
2015-Mar-02 23:34N 40°36' W 074°01'0 0.0
2015-Mar-02 22:34N 40°36' W 074°01'0 0.0
2015-Mar-02 21:33N 40°36' W 074°01'0 0.0
2015-Mar-02 20:34N 40°36' W 074°01'0 0.0
2015-Mar-02 19:34N 40°36' W 074°01'0 0.0
2015-Mar-02 18:34N 40°36' W 074°01'0 0.0
2015-Mar-02 17:34N 40°36' W 074°01'0 0.0
2015-Mar-02 16:33N 40°36' W 074°01'0 0.1
2015-Mar-02 15:34N 40°36' W 074°01'0 0.0
2015-Mar-02 14:34N 40°36' W 074°01'0 0.1
2015-Mar-02 13:34N 40°36' W 074°01'0 0.1
2015-Mar-02 12:33N 40°36' W 074°01'0 0.0
2015-Mar-02 11:33N 40°36' W 074°01'0 0.0
2015-Mar-02 10:29N 40°36' W 074°01'0 0.0
2015-Mar-02 09:27N 40°36' W 074°01'0 0.1
2015-Mar-02 08:33N 40°36' W 074°01'0 0.1
2015-Mar-02 07:33N 40°36' W 074°01'4 4.4
2015-Mar-02 06:34N 40°39' W 074°05'0 0.0
2015-Mar-02 05:34N 40°39' W 074°05'0 0.0
2015-Mar-02 04:33N 40°39' W 074°05'0 0.0
2015-Mar-02 03:34N 40°39' W 074°05'0 0.0
2015-Mar-02 02:34N 40°39' W 074°05'0 0.0
2015-Mar-02 01:34N 40°39' W 074°05'0 0.0
2015-Mar-02 00:34N 40°39' W 074°05'0 0.2
2015-Mar-01 23:34N 40°39' W 074°05'4 3.7
2015-Mar-01 22:34N 40°40' W 074°00'0 0.0
2015-Mar-01 21:33N 40°40' W 074°00'0 0.0
2015-Mar-01 20:34N 40°40' W 074°00'0 0.0
2015-Mar-01 19:34N 40°40' W 074°00'0 0.0
2015-Mar-01 18:34N 40°40' W 074°00'0 0.0
2015-Mar-01 17:34N 40°40' W 074°00'0 0.0
2015-Mar-01 16:34N 40°40' W 074°00'0 0.0
2015-Mar-01 15:34N 40°40' W 074°00'0 0.0
2015-Mar-01 14:34N 40°40' W 074°00'1 1.4
2015-Mar-01 13:34N 40°39' W 074°02'4 3.9
2015-Mar-01 12:34N 40°39' W 074°07'4 4.3
2015-Mar-01 11:34N 40°38' W 074°12'0 0.3
2015-Mar-01 10:33N 40°38' W 074°12'0 0.0
2015-Mar-01 09:34N 40°38' W 074°12'0 0.0
2015-Mar-01 08:34N 40°38' W 074°12'0 0.0
2015-Mar-01 07:34N 40°38' W 074°12'0 0.0
2015-Mar-01 06:34N 40°38' W 074°12'0 0.0
2015-Mar-01 05:33N 40°38' W 074°12'0 0.0
2015-Mar-01 04:34N 40°38' W 074°12'0 0.0
2015-Mar-01 03:33N 40°38' W 074°12'0 0.0
2015-Mar-01 02:32N 40°38' W 074°12'0 0.0
2015-Mar-01 01:34N 40°38' W 074°12'0 0.0
2015-Mar-01 00:33N 40°38' W 074°12'0 0.0
2015-Feb-28 23:33N 40°38' W 074°12'0 0.0
2015-Feb-28 22:32N 40°38' W 074°12'0 0.0
2015-Feb-28 21:33N 40°38' W 074°12'0 0.0
2015-Feb-28 20:33N 40°38' W 074°12'0 0.0
2015-Feb-28 19:31N 40°38' W 074°12'0 0.0
2015-Feb-28 18:27N 40°38' W 074°12'3 1.7
2015-Feb-28 16:34N 40°39' W 074°08'2 2.2
2015-Feb-28 15:34N 40°39' W 074°05'0 0.0
2015-Feb-28 14:34N 40°39' W 074°05'0 0.0
2015-Feb-28 13:34N 40°39' W 074°05'0 0.0
2015-Feb-28 12:34N 40°39' W 074°05'0 0.0
2015-Feb-28 11:34N 40°39' W 074°05'0 0.0
2015-Feb-28 10:33N 40°39' W 074°05'0 0.0
2015-Feb-28 09:34N 40°39' W 074°05'0 0.0
2015-Feb-28 08:34N 40°39' W 074°05'0 0.0
2015-Feb-28 07:34N 40°39' W 074°05'0 0.0
2015-Feb-28 06:34N 40°39' W 074°05'0 0.0
2015-Feb-28 05:34N 40°39' W 074°05'0 0.0
2015-Feb-28 04:34N 40°39' W 074°05'0 0.0
2015-Feb-28 03:34N 40°39' W 074°05'0 0.0
2015-Feb-28 02:34N 40°39' W 074°05'0 0.0
2015-Feb-28 01:34N 40°39' W 074°05'0 0.0
2015-Feb-28 00:33N 40°39' W 074°05'0 0.0
2015-Feb-27 23:33N 40°39' W 074°05'0 0.0
2015-Feb-27 22:34N 40°39' W 074°05'0 0.0
2015-Feb-27 21:33N 40°39' W 074°05'0 0.0
2015-Feb-27 20:34N 40°39' W 074°05'0 0.0
2015-Feb-27 19:34N 40°39' W 074°05'0 0.0
2015-Feb-27 18:33N 40°39' W 074°05'0 0.0
2015-Feb-27 17:34N 40°39' W 074°05'0 0.0
2015-Feb-27 16:34N 40°39' W 074°05'0 0.0
2015-Feb-27 15:34N 40°39' W 074°05'0 0.0
2015-Feb-27 14:33N 40°39' W 074°05'0 0.0
2015-Feb-27 13:34N 40°39' W 074°05'0 0.0
2015-Feb-27 12:34N 40°39' W 074°05'0 0.0
2015-Feb-27 11:34N 40°39' W 074°05'5 5.1
2015-Feb-27 10:33N 40°38' W 074°12'0 0.5
2015-Feb-27 09:33N 40°38' W 074°12'0 0.0
2015-Feb-27 08:33N 40°38' W 074°12'0 0.0
2015-Feb-27 07:31N 40°38' W 074°12'0 0.0
2015-Feb-27 06:34N 40°38' W 074°12'0 0.0
2015-Feb-27 05:34N 40°38' W 074°12'0 0.0
2015-Feb-27 04:34N 40°38' W 074°12'0 0.0
2015-Feb-27 03:33N 40°38' W 074°12'0 0.0
2015-Feb-27 02:32N 40°38' W 074°12'0 0.0
2015-Feb-27 01:32N 40°38' W 074°12'0 0.0
2015-Feb-27 00:33N 40°38' W 074°12'0 0.0
2015-Feb-26 23:33N 40°38' W 074°12'0 0.0
2015-Feb-26 22:33N 40°38' W 074°12'6 6.5
2015-Feb-26 21:34N 40°39' W 074°04'3 3.0
2015-Feb-26 20:33N 40°40' W 074°00'0 0.0
2015-Feb-26 19:32N 40°40' W 074°00'0 0.0
2015-Feb-26 18:33N 40°40' W 074°00'0 0.1
2015-Feb-26 17:33N 40°40' W 074°00'6 6.3
2015-Feb-26 16:33N 40°39' W 074°08'3 3.2
2015-Feb-26 15:33N 40°38' W 074°12'0 0.0
2015-Feb-26 14:31N 40°38' W 074°12'0 0.0
2015-Feb-26 13:33N 40°38' W 074°12'0 0.0
2015-Feb-26 12:30N 40°38' W 074°12'0 0.0
2015-Feb-26 11:33N 40°38' W 074°12'0 0.0
2015-Feb-26 10:32N 40°38' W 074°12'0 0.0
2015-Feb-26 09:33N 40°38' W 074°12'0 0.0
2015-Feb-26 08:33N 40°38' W 074°12'0 0.0
2015-Feb-26 07:33N 40°38' W 074°12'0 0.0
2015-Feb-26 06:33N 40°38' W 074°12'0 0.0
2015-Feb-26 05:33N 40°38' W 074°12'0 0.0
2015-Feb-26 04:33N 40°38' W 074°12'0 0.1
2015-Feb-26 03:28N 40°38' W 074°12'3 3.1
2015-Feb-26 02:32N 40°39' W 074°09'5 5.5
2015-Feb-26 01:33N 40°41' W 074°02'16 7.8
2015-Feb-25 23:32N 40°56' W 073°55'0 0.1
2015-Feb-25 22:11N 40°56' W 073°55'3 1.8
2015-Feb-25 20:33N 40°59' W 073°54'9 8.1
2015-Feb-25 19:24N 41°08' W 073°53'17 0.9
2015-Feb-25 00:24N 41°24' W 073°57'13 6.2
2015-Feb-24 22:16N 41°11' W 073°56'21 7.6
2015-Feb-24 19:33N 40°50' W 073°58'9 9.4
2015-Feb-24 18:33N 40°42' W 074°02'4 3.6
2015-Feb-24 17:33N 40°39' W 074°05'  
Track history (hours):
 
Tides and Currents Weather Stations Pressure Air Temp Water Temp Dewpoint Dewpoint Depression Visibility Wind Speed Wind Dir Waves Ship Positions

Nanticoke

Owner: Vane Line Bunkering, Baltimore, MD. More information available from US FCC via Universal Licensing System and Coast Guard Vessel Documentation Center.

Last reported at 2015-Mar-06 16:33 UTC. Time now 2015-Mar-06 17:35 UTC.
Position N 40°40' W 074°00'.

Length 34 m; draft 4.7 m.

Type: Towing. MMSI: 367023480.

Date/timePositionNaut miles runAvg speedWind from/ knotsBaromVisibWave heightAir tempDewpointWater temp
2015-Mar-06 16:33N 40°40' W 074°00'0 0.0
2015-Mar-06 15:33N 40°40' W 074°00'0 0.0
2015-Mar-06 14:33N 40°40' W 074°00'0 0.0
2015-Mar-06 13:33N 40°40' W 074°00'1 1.3
2015-Mar-06 12:34N 40°41' W 074°00'0 0.1
2015-Mar-06 11:33N 40°41' W 074°00'0 0.0
2015-Mar-06 10:33N 40°41' W 074°00'0 0.0
2015-Mar-06 09:33N 40°41' W 074°00'0 0.0
2015-Mar-06 08:33N 40°41' W 074°00'0 0.0
2015-Mar-06 07:33N 40°41' W 074°00'0 0.0
2015-Mar-06 06:33N 40°41' W 074°00'0 0.0
2015-Mar-06 05:33N 40°41' W 074°00'0 0.0
2015-Mar-06 04:34N 40°41' W 074°00'0 0.0
2015-Mar-06 03:33N 40°41' W 074°00'0 0.0
2015-Mar-06 02:33N 40°41' W 074°00'2 2.4
2015-Mar-06 01:33N 40°40' W 074°02'0 0.0
2015-Mar-06 00:33N 40°40' W 074°02'0 0.0
2015-Mar-05 23:33N 40°40' W 074°02'0 0.0
2015-Mar-05 22:33N 40°40' W 074°02'0 0.0
2015-Mar-05 21:33N 40°40' W 074°02'0 0.1
2015-Mar-05 20:33N 40°40' W 074°03'0 0.0
2015-Mar-05 19:33N 40°40' W 074°03'0 0.0
2015-Mar-05 18:33N 40°40' W 074°03'0 0.0
2015-Mar-05 17:33N 40°40' W 074°03'0 0.0
2015-Mar-05 16:33N 40°40' W 074°02'0 0.1
2015-Mar-05 15:33N 40°40' W 074°03'0 0.0
2015-Mar-05 14:33N 40°40' W 074°03'0 0.1
2015-Mar-05 13:33N 40°40' W 074°02'0 0.1
2015-Mar-05 12:33N 40°40' W 074°02'0 0.0
2015-Mar-05 11:33N 40°40' W 074°02'0 0.1
2015-Mar-05 10:33N 40°40' W 074°02'0 0.1
2015-Mar-05 09:33N 40°40' W 074°03'0 0.0
2015-Mar-05 08:33N 40°40' W 074°02'0 0.1
2015-Mar-05 07:33N 40°40' W 074°03'0 0.0
2015-Mar-05 06:33N 40°40' W 074°03'0 0.0
2015-Mar-05 05:33N 40°40' W 074°03'0 0.0
2015-Mar-05 04:33N 40°40' W 074°03'0 0.1
2015-Mar-05 03:33N 40°40' W 074°02'0 0.0
2015-Mar-05 02:33N 40°40' W 074°02'0 0.0
2015-Mar-05 01:33N 40°40' W 074°02'0 0.0
2015-Mar-05 00:33N 40°40' W 074°02'0 0.0
2015-Mar-04 23:33N 40°40' W 074°02'0 0.0
2015-Mar-04 22:33N 40°40' W 074°03'0 0.1
2015-Mar-04 21:33N 40°40' W 074°02'0 0.1
2015-Mar-04 20:33N 40°40' W 074°03'0 0.0
2015-Mar-04 19:33N 40°40' W 074°03'0 0.0
2015-Mar-04 18:33N 40°40' W 074°03'0 0.0
2015-Mar-04 17:33N 40°40' W 074°03'0 0.0
2015-Mar-04 16:33N 40°40' W 074°03'0 0.1
2015-Mar-04 15:33N 40°40' W 074°02'0 0.1
2015-Mar-04 14:33N 40°40' W 074°02'0 0.0
2015-Mar-04 13:33N 40°40' W 074°02'0 0.0
2015-Mar-04 12:33N 40°40' W 074°02'0 0.0
2015-Mar-04 11:33N 40°40' W 074°02'0 0.0
2015-Mar-04 10:33N 40°40' W 074°02'0 0.0
2015-Mar-04 09:33N 40°40' W 074°02'0 0.0
2015-Mar-04 08:33N 40°40' W 074°02'0 0.1
2015-Mar-04 07:33N 40°40' W 074°03'0 0.0
2015-Mar-04 06:33N 40°40' W 074°02'0 0.0
2015-Mar-04 05:33N 40°40' W 074°03'0 0.1
2015-Mar-04 04:33N 40°40' W 074°03'3 2.7
2015-Mar-04 03:33N 40°37' W 074°03'0 0.3
2015-Mar-04 02:33N 40°37' W 074°03'0 0.0
2015-Mar-04 01:33N 40°37' W 074°03'0 0.0
2015-Mar-04 00:33N 40°37' W 074°03'0 0.0
2015-Mar-03 23:33N 40°37' W 074°03'0 0.0
2015-Mar-03 22:33N 40°37' W 074°03'0 0.0
2015-Mar-03 21:33N 40°37' W 074°03'0 0.1
2015-Mar-03 20:33N 40°37' W 074°03'2 1.9
2015-Mar-03 19:33N 40°36' W 074°01'0 0.1
2015-Mar-03 18:33N 40°36' W 074°01'0 0.1
2015-Mar-03 17:33N 40°36' W 074°01'0 0.0
2015-Mar-03 16:33N 40°36' W 074°01'0 0.0
2015-Mar-03 15:33N 40°36' W 074°01'0 0.0
2015-Mar-03 14:33N 40°36' W 074°01'0 0.0
2015-Mar-03 13:33N 40°36' W 074°01'0 0.0
2015-Mar-03 12:33N 40°36' W 074°01'0 0.0
2015-Mar-03 11:33N 40°36' W 074°01'0 0.0
2015-Mar-03 10:33N 40°36' W 074°01'0 0.1
2015-Mar-03 09:33N 40°36' W 074°01'0 0.1
2015-Mar-03 08:33N 40°36' W 074°01'0 0.1
2015-Mar-03 07:33N 40°36' W 074°01'0 0.0
2015-Mar-03 06:33N 40°36' W 074°01'0 0.0
2015-Mar-03 05:33N 40°36' W 074°01'0 0.0
2015-Mar-03 04:33N 40°36' W 074°01'0 0.0
2015-Mar-03 03:33N 40°36' W 074°01'0 0.0
2015-Mar-03 02:33N 40°36' W 074°01'0 0.0
2015-Mar-03 01:33N 40°36' W 074°01'0 0.0
2015-Mar-03 00:33N 40°36' W 074°01'0 0.0
2015-Mar-02 23:34N 40°36' W 074°01'0 0.0
2015-Mar-02 22:34N 40°36' W 074°01'0 0.0
2015-Mar-02 21:33N 40°36' W 074°01'0 0.0
2015-Mar-02 20:34N 40°36' W 074°01'0 0.0
2015-Mar-02 19:34N 40°36' W 074°01'0 0.0
2015-Mar-02 18:34N 40°36' W 074°01'0 0.0
2015-Mar-02 17:34N 40°36' W 074°01'0 0.0
2015-Mar-02 16:33N 40°36' W 074°01'0 0.1
2015-Mar-02 15:34N 40°36' W 074°01'0 0.0
2015-Mar-02 14:34N 40°36' W 074°01'0 0.1
2015-Mar-02 13:34N 40°36' W 074°01'0 0.1
2015-Mar-02 12:33N 40°36' W 074°01'0 0.0
2015-Mar-02 11:33N 40°36' W 074°01'0 0.0
2015-Mar-02 10:29N 40°36' W 074°01'0 0.0
2015-Mar-02 09:27N 40°36' W 074°01'0 0.1
2015-Mar-02 08:33N 40°36' W 074°01'0 0.1
2015-Mar-02 07:33N 40°36' W 074°01'4 4.4
2015-Mar-02 06:34N 40°39' W 074°05'0 0.0
2015-Mar-02 05:34N 40°39' W 074°05'0 0.0
2015-Mar-02 04:33N 40°39' W 074°05'0 0.0
2015-Mar-02 03:34N 40°39' W 074°05'0 0.0
2015-Mar-02 02:34N 40°39' W 074°05'0 0.0
2015-Mar-02 01:34N 40°39' W 074°05'0 0.0
2015-Mar-02 00:34N 40°39' W 074°05'0 0.2
2015-Mar-01 23:34N 40°39' W 074°05'4 3.7
2015-Mar-01 22:34N 40°40' W 074°00'0 0.0
2015-Mar-01 21:33N 40°40' W 074°00'0 0.0
2015-Mar-01 20:34N 40°40' W 074°00'0 0.0
2015-Mar-01 19:34N 40°40' W 074°00'0 0.0
2015-Mar-01 18:34N 40°40' W 074°00'0 0.0
2015-Mar-01 17:34N 40°40' W 074°00'0 0.0
2015-Mar-01 16:34N 40°40' W 074°00'0 0.0
2015-Mar-01 15:34N 40°40' W 074°00'0 0.0
2015-Mar-01 14:34N 40°40' W 074°00'1 1.4
2015-Mar-01 13:34N 40°39' W 074°02'4 3.9
2015-Mar-01 12:34N 40°39' W 074°07'4 4.3
2015-Mar-01 11:34N 40°38' W 074°12'0 0.3
2015-Mar-01 10:33N 40°38' W 074°12'0 0.0
2015-Mar-01 09:34N 40°38' W 074°12'0 0.0
2015-Mar-01 08:34N 40°38' W 074°12'0 0.0
2015-Mar-01 07:34N 40°38' W 074°12'0 0.0
2015-Mar-01 06:34N 40°38' W 074°12'0 0.0
2015-Mar-01 05:33N 40°38' W 074°12'0 0.0
2015-Mar-01 04:34N 40°38' W 074°12'0 0.0
2015-Mar-01 03:33N 40°38' W 074°12'0 0.0
2015-Mar-01 02:32N 40°38' W 074°12'0 0.0
2015-Mar-01 01:34N 40°38' W 074°12'0 0.0
2015-Mar-01 00:33N 40°38' W 074°12'0 0.0
2015-Feb-28 23:33N 40°38' W 074°12'0 0.0
2015-Feb-28 22:32N 40°38' W 074°12'0 0.0
2015-Feb-28 21:33N 40°38' W 074°12'0 0.0
2015-Feb-28 20:33N 40°38' W 074°12'0 0.0
2015-Feb-28 19:31N 40°38' W 074°12'0 0.0
2015-Feb-28 18:27N 40°38' W 074°12'3 1.7
2015-Feb-28 16:34N 40°39' W 074°08'2 2.2
2015-Feb-28 15:34N 40°39' W 074°05'0 0.0
2015-Feb-28 14:34N 40°39' W 074°05'0 0.0
2015-Feb-28 13:34N 40°39' W 074°05'0 0.0
2015-Feb-28 12:34N 40°39' W 074°05'0 0.0
2015-Feb-28 11:34N 40°39' W 074°05'0 0.0
2015-Feb-28 10:33N 40°39' W 074°05'0 0.0
2015-Feb-28 09:34N 40°39' W 074°05'0 0.0
2015-Feb-28 08:34N 40°39' W 074°05'0 0.0
2015-Feb-28 07:34N 40°39' W 074°05'0 0.0
2015-Feb-28 06:34N 40°39' W 074°05'0 0.0
2015-Feb-28 05:34N 40°39' W 074°05'0 0.0
2015-Feb-28 04:34N 40°39' W 074°05'0 0.0
2015-Feb-28 03:34N 40°39' W 074°05'0 0.0
2015-Feb-28 02:34N 40°39' W 074°05'0 0.0
2015-Feb-28 01:34N 40°39' W 074°05'0 0.0
2015-Feb-28 00:33N 40°39' W 074°05'0 0.0
2015-Feb-27 23:33N 40°39' W 074°05'0 0.0
2015-Feb-27 22:34N 40°39' W 074°05'0 0.0
2015-Feb-27 21:33N 40°39' W 074°05'0 0.0
2015-Feb-27 20:34N 40°39' W 074°05'0 0.0
2015-Feb-27 19:34N 40°39' W 074°05'0 0.0
2015-Feb-27 18:33N 40°39' W 074°05'0 0.0
2015-Feb-27 17:34N 40°39' W 074°05'0 0.0
2015-Feb-27 16:34N 40°39' W 074°05'0 0.0
2015-Feb-27 15:34N 40°39' W 074°05'0 0.0
2015-Feb-27 14:33N 40°39' W 074°05'0 0.0
2015-Feb-27 13:34N 40°39' W 074°05'0 0.0
2015-Feb-27 12:34N 40°39' W 074°05'0 0.0
2015-Feb-27 11:34N 40°39' W 074°05'5 5.1
2015-Feb-27 10:33N 40°38' W 074°12'0 0.5
2015-Feb-27 09:33N 40°38' W 074°12'0 0.0
2015-Feb-27 08:33N 40°38' W 074°12'0 0.0
2015-Feb-27 07:31N 40°38' W 074°12'0 0.0
2015-Feb-27 06:34N 40°38' W 074°12'0 0.0
2015-Feb-27 05:34N 40°38' W 074°12'0 0.0
2015-Feb-27 04:34N 40°38' W 074°12'0 0.0
2015-Feb-27 03:33N 40°38' W 074°12'0 0.0
2015-Feb-27 02:32N 40°38' W 074°12'0 0.0
2015-Feb-27 01:32N 40°38' W 074°12'0 0.0
2015-Feb-27 00:33N 40°38' W 074°12'0 0.0
2015-Feb-26 23:33N 40°38' W 074°12'0 0.0
2015-Feb-26 22:33N 40°38' W 074°12'6 6.5
2015-Feb-26 21:34N 40°39' W 074°04'3 3.0
2015-Feb-26 20:33N 40°40' W 074°00'0 0.0
2015-Feb-26 19:32N 40°40' W 074°00'0 0.0
2015-Feb-26 18:33N 40°40' W 074°00'0 0.1
2015-Feb-26 17:33N 40°40' W 074°00'6 6.3
2015-Feb-26 16:33N 40°39' W 074°08'3 3.2
2015-Feb-26 15:33N 40°38' W 074°12'0 0.0
2015-Feb-26 14:31N 40°38' W 074°12'0 0.0
2015-Feb-26 13:33N 40°38' W 074°12'0 0.0
2015-Feb-26 12:30N 40°38' W 074°12'0 0.0
2015-Feb-26 11:33N 40°38' W 074°12'0 0.0
2015-Feb-26 10:32N 40°38' W 074°12'0 0.0
2015-Feb-26 09:33N 40°38' W 074°12'0 0.0
2015-Feb-26 08:33N 40°38' W 074°12'0 0.0
2015-Feb-26 07:33N 40°38' W 074°12'0 0.0
2015-Feb-26 06:33N 40°38' W 074°12'0 0.0
2015-Feb-26 05:33N 40°38' W 074°12'0 0.0
2015-Feb-26 04:33N 40°38' W 074°12'0 0.1
2015-Feb-26 03:28N 40°38' W 074°12'3 3.1
2015-Feb-26 02:32N 40°39' W 074°09'5 5.5
2015-Feb-26 01:33N 40°41' W 074°02'16 7.8
2015-Feb-25 23:32N 40°56' W 073°55'0 0.1
2015-Feb-25 22:11N 40°56' W 073°55'3 1.8
2015-Feb-25 20:33N 40°59' W 073°54'9 8.1
2015-Feb-25 19:24N 41°08' W 073°53'17 0.9
2015-Feb-25 00:24N 41°24' W 073°57'13 6.2
2015-Feb-24 22:16N 41°11' W 073°56'21 7.6
2015-Feb-24 19:33N 40°50' W 073°58'9 9.4
2015-Feb-24 18:33N 40°42' W 074°02'4 3.6
2015-Feb-24 17:33N 40°39' W 074°05'  

Dump ship's entire track history